Time;durP1;ratioP1;P1;durP2;ratioP2;P2;SDS_P1;SDS_P2;PMS_P1;PMS_P2;Temp;Humidity;BMP_temperature;BMP_pressure;BME280_temperature;BME280_humidity;BME280_pressure;Samples;Min_cycle;Max_cycle;Signal;HPM_P1;HPM_P2
2024/02/17 05:00:47;;;;;;;0.88;0.80;;;9.10;99.90;;;;;;5691032;23;20282;-71
2024/02/17 05:03:14;;;;;;;0.82;0.82;;;9.10;99.90;;;;;;4913035;29;20203;-71
2024/02/17 05:05:41;;;;;;;0.90;0.90;;;9.00;99.90;;;;;;4914321;29;20259;-72
2024/02/17 05:08:08;;;;;;;0.60;0.60;;;9.00;99.90;;;;;;4914460;29;20551;-71
2024/02/17 05:10:35;;;;;;;1.17;1.08;;;9.00;99.90;;;;;;4913622;29;20234;-71
2024/02/17 05:13:02;;;;;;;0.95;0.95;;;9.00;99.90;;;;;;4914208;29;20211;-71
2024/02/17 05:15:28;;;;;;;0.63;0.63;;;9.00;99.90;;;;;;4914058;29;20218;-70
2024/02/17 05:17:56;;;;;;;1.02;0.65;;;9.00;99.90;;;;;;4911403;29;20227;-71
2024/02/17 05:20:23;;;;;;;4.18;1.10;;;9.00;99.90;;;;;;4912590;29;20203;-72
2024/02/17 05:22:50;;;;;;;0.60;0.60;;;9.00;99.90;;;;;;4914167;29;20214;-72
2024/02/17 05:25:18;;;;;;;0.73;0.65;;;9.00;99.90;;;;;;4912970;29;20227;-71
2024/02/17 05:27:45;;;;;;;0.38;0.38;;;8.90;99.90;;;;;;4913615;29;20230;-71
2024/02/17 05:30:14;;;;;;;0.40;0.40;;;8.90;99.90;;;;;;4913319;29;20207;-71
2024/02/17 05:32:41;;;;;;;0.30;0.30;;;8.90;99.90;;;;;;4911656;29;20238;-71
2024/02/17 05:35:10;;;;;;;0.73;0.70;;;8.90;99.90;;;;;;4909511;29;20246;-71
2024/02/17 05:37:36;;;;;;;3.35;0.80;;;8.80;99.90;;;;;;4910207;29;20226;-71
2024/02/17 05:40:06;;;;;;;0.80;0.80;;;8.80;99.90;;;;;;4912923;29;20210;-72
2024/02/17 05:42:34;;;;;;;0.47;0.47;;;8.70;99.90;;;;;;4910984;29;20211;-71
2024/02/17 05:45:01;;;;;;;0.40;0.30;;;8.70;99.90;;;;;;4916759;29;20352;-72
2024/02/17 05:47:27;;;;;;;0.30;0.30;;;8.60;99.90;;;;;;4914105;29;20207;-72
2024/02/17 05:49:54;;;;;;;0.20;0.20;;;8.50;99.90;;;;;;4914402;29;20211;-71
2024/02/17 05:52:22;;;;;;;2.72;2.63;;;8.50;99.90;;;;;;4915890;29;20230;-72
2024/02/17 05:54:49;;;;;;;0.20;0.20;;;8.40;99.90;;;;;;4916756;29;20639;-70
2024/02/17 05:57:15;;;;;;;0.40;0.40;;;8.30;99.90;;;;;;4916518;29;20222;-71
2024/02/17 05:59:42;;;;;;;0.43;0.40;;;8.30;99.90;;;;;;4916468;29;20578;-71
2024/02/17 06:02:09;;;;;;;0.40;0.40;;;8.30;99.90;;;;;;4914751;29;20246;-71
2024/02/17 06:04:36;;;;;;;0.28;0.28;;;8.30;99.90;;;;;;4914247;29;20240;-71
2024/02/17 06:07:02;;;;;;;0.85;0.85;;;8.20;99.90;;;;;;4915792;29;20685;-71
2024/02/17 06:09:30;;;;;;;0.20;0.20;;;8.20;99.90;;;;;;4916285;29;20207;-72
2024/02/17 06:11:57;;;;;;;1.95;0.60;;;8.20;99.90;;;;;;4915499;29;20238;-71
2024/02/17 06:14:23;;;;;;;1.27;0.32;;;8.20;99.90;;;;;;4916522;29;20214;-71
2024/02/17 06:16:50;;;;;;;0.30;0.30;;;8.20;99.90;;;;;;4913692;29;20744;-72
2024/02/17 06:22:01;;;;;;;0.20;0.20;;;8.20;99.90;;;;;;4915942;29;20309;-71
2024/02/17 06:24:28;;;;;;;0.40;0.40;;;8.10;99.90;;;;;;4916393;29;20218;-71
2024/02/17 06:26:56;;;;;;;0.20;0.20;;;8.10;99.90;;;;;;4916000;29;20688;-71
2024/02/17 06:29:22;;;;;;;0.55;0.55;;;8.10;99.90;;;;;;4915853;29;20210;-72
2024/02/17 06:31:49;;;;;;;1.20;0.50;;;8.00;99.90;;;;;;4914932;29;20238;-71
2024/02/17 06:34:16;;;;;;;0.73;0.50;;;8.00;99.90;;;;;;4915913;29;20206;-71
2024/02/17 06:36:42;;;;;;;0.50;0.40;;;8.00;99.90;;;;;;4914064;29;20210;-71
2024/02/17 06:39:09;;;;;;;0.40;0.40;;;8.00;99.90;;;;;;4915125;29;20696;-72
2024/02/17 06:41:36;;;;;;;0.40;0.40;;;8.00;99.90;;;;;;4915636;29;20227;-70
2024/02/17 06:44:04;;;;;;;0.95;0.95;;;8.00;99.90;;;;;;4914296;29;20211;-72
2024/02/17 06:46:31;;;;;;;0.40;0.40;;;8.00;99.90;;;;;;4912146;29;20209;-72
2024/02/17 06:48:57;;;;;;;1.05;1.05;;;8.00;99.90;;;;;;4911964;29;20207;-72
2024/02/17 06:51:24;;;;;;;1.45;1.45;;;8.00;99.90;;;;;;4915265;29;20238;-71
2024/02/17 06:53:51;;;;;;;1.98;1.85;;;8.00;99.90;;;;;;4914145;29;20214;-71
2024/02/17 06:56:18;;;;;;;0.77;0.77;;;8.00;99.90;;;;;;4914818;29;20207;-71
2024/02/17 06:58:45;;;;;;;0.43;0.43;;;8.00;99.90;;;;;;4913653;29;20233;-72
2024/02/17 07:01:13;;;;;;;0.45;0.45;;;8.00;99.90;;;;;;4910677;29;20238;-71
2024/02/17 07:03:39;;;;;;;6.82;1.02;;;8.00;99.90;;;;;;4915006;29;20673;-71
2024/02/17 07:06:06;;;;;;;1.55;1.45;;;7.90;99.90;;;;;;4915643;29;20769;-72
2024/02/17 07:08:33;;;;;;;4.70;2.90;;;7.90;99.90;;;;;;4912667;29;20476;-71
2024/02/17 07:11:00;;;;;;;3.47;3.28;;;7.90;99.90;;;;;;4914884;29;20234;-71
2024/02/17 07:13:26;;;;;;;0.60;0.60;;;7.90;99.90;;;;;;4914421;29;20237;-70
2024/02/17 07:15:53;;;;;;;1.45;1.35;;;8.00;99.90;;;;;;4914370;29;20210;-71
2024/02/17 07:18:21;;;;;;;0.90;0.90;;;7.90;99.90;;;;;;4912208;29;20242;-71
2024/02/17 07:20:48;;;;;;;1.02;1.02;;;7.90;99.90;;;;;;4911911;29;20234;-71
2024/02/17 07:23:17;;;;;;;0.50;0.50;;;7.90;99.90;;;;;;4914551;29;20213;-70
2024/02/17 07:25:44;;;;;;;0.55;0.55;;;7.90;99.90;;;;;;4915068;29;20211;-71
2024/02/17 07:28:12;;;;;;;1.10;1.00;;;7.80;99.90;;;;;;4914714;29;20615;-71
2024/02/17 07:30:41;;;;;;;3.70;1.35;;;7.80;99.90;;;;;;4913857;29;20258;-69
2024/02/17 07:33:09;;;;;;;2.35;1.05;;;7.80;99.90;;;;;;4913659;29;20301;-71
2024/02/17 07:35:40;;;;;;;0.70;0.70;;;7.90;99.90;;;;;;4914764;29;20241;-73
2024/02/17 07:38:07;;;;;;;0.70;0.47;;;7.80;99.90;;;;;;4915109;29;20724;-70
2024/02/17 07:40:34;;;;;;;0.93;0.77;;;7.90;99.90;;;;;;4914896;29;20226;-71
2024/02/17 07:43:01;;;;;;;0.60;0.60;;;7.80;99.90;;;;;;4915692;29;20210;-71
2024/02/17 07:45:27;;;;;;;1.08;1.08;;;7.80;99.90;;;;;;4915764;29;20267;-71
2024/02/17 07:47:54;;;;;;;1.05;0.40;;;7.80;99.90;;;;;;4914237;29;20210;-71
2024/02/17 07:50:21;;;;;;;3.58;1.52;;;7.70;99.90;;;;;;4914127;29;20210;-71
2024/02/17 07:52:49;;;;;;;0.75;0.75;;;7.80;99.90;;;;;;4913263;29;20238;-71
2024/02/17 07:55:15;;;;;;;1.17;0.47;;;7.80;99.90;;;;;;4914589;29;20600;-71
2024/02/17 07:57:42;;;;;;;1.83;0.60;;;7.80;99.90;;;;;;4913621;29;20705;-72
2024/02/17 08:00:10;;;;;;;9.68;1.13;;;7.80;99.90;;;;;;4907157;29;20211;-71
2024/02/17 08:02:39;;;;;;;0.85;0.57;;;7.80;99.90;;;;;;4913722;29;20575;-72
2024/02/17 08:05:05;;;;;;;0.95;0.80;;;7.80;99.90;;;;;;4912673;29;20674;-70
2024/02/17 08:07:31;;;;;;;0.50;0.50;;;7.80;99.90;;;;;;4908599;29;20214;-71
2024/02/17 08:09:59;;;;;;;4.67;1.30;;;7.80;99.90;;;;;;4912135;29;20203;-71
2024/02/17 08:12:26;;;;;;;2.15;2.05;;;7.80;99.90;;;;;;4913719;29;20229;-71
2024/02/17 08:14:53;;;;;;;0.70;0.70;;;8.00;99.90;;;;;;4912182;29;20210;-69
2024/02/17 08:17:20;;;;;;;5.03;2.00;;;8.00;99.90;;;;;;4909293;29;20210;-70
2024/02/17 08:19:47;;;;;;;5.65;0.85;;;8.10;99.90;;;;;;4912120;29;20234;-71
2024/02/17 08:22:15;;;;;;;2.63;0.85;;;8.10;99.90;;;;;;4908724;29;20222;-71
2024/02/17 08:24:42;;;;;;;3.17;0.90;;;8.10;99.90;;;;;;4914112;29;20226;-70
2024/02/17 08:27:12;;;;;;;2.30;0.60;;;8.20;99.90;;;;;;4911384;29;20203;-70
2024/02/17 08:29:38;;;;;;;8.82;1.95;;;8.20;99.90;;;;;;4911085;29;20366;-71
2024/02/17 08:32:06;;;;;;;2.15;0.82;;;8.20;99.90;;;;;;4913618;29;20239;-71
2024/02/17 08:34:33;;;;;;;0.77;0.57;;;8.10;99.90;;;;;;4907764;29;20209;-71
2024/02/17 08:37:00;;;;;;;8.57;0.80;;;8.00;99.90;;;;;;4913769;29;20213;-71
2024/02/17 08:39:26;;;;;;;0.60;0.60;;;8.00;99.90;;;;;;4913481;29;20226;-71
2024/02/17 08:41:55;;;;;;;1.88;0.60;;;8.00;99.90;;;;;;4910814;29;20242;-72
2024/02/17 08:44:23;;;;;;;2.70;0.80;;;8.00;99.90;;;;;;4912224;29;20676;-71
2024/02/17 08:46:50;;;;;;;0.60;0.60;;;8.00;99.90;;;;;;4914293;29;20221;-71
2024/02/17 08:49:16;;;;;;;0.57;0.57;;;8.00;99.90;;;;;;4913033;29;20214;-71
2024/02/17 08:51:43;;;;;;;1.30;0.30;;;8.00;99.90;;;;;;4917292;29;20234;-71
2024/02/17 08:54:10;;;;;;;2.33;0.75;;;8.00;99.90;;;;;;4913598;29;20222;-70
2024/02/17 08:56:38;;;;;;;2.67;0.90;;;8.00;99.90;;;;;;4913108;29;20670;-71
2024/02/17 08:59:04;;;;;;;3.22;0.60;;;8.10;99.90;;;;;;4912763;29;20230;-70
2024/02/17 09:01:32;;;;;;;7.93;1.00;;;8.10;99.90;;;;;;4911143;29;20597;-73
2024/02/17 09:03:59;;;;;;;4.18;0.50;;;8.10;99.90;;;;;;4911607;29;20214;-71
2024/02/17 09:06:26;;;;;;;0.28;0.28;;;8.10;99.90;;;;;;4913794;29;20206;-71
2024/02/17 09:08:53;;;;;;;2.08;1.02;;;8.20;99.90;;;;;;4913725;29;20230;-70
2024/02/17 09:11:21;;;;;;;3.65;0.40;;;8.30;99.90;;;;;;4911377;29;20230;-71
2024/02/17 09:13:48;;;;;;;1.25;0.77;;;8.40;99.90;;;;;;4914188;29;20211;-71
2024/02/17 09:16:15;;;;;;;0.50;0.47;;;8.40;99.90;;;;;;4917169;29;20737;-70
2024/02/17 09:18:43;;;;;;;0.75;0.73;;;8.50;99.90;;;;;;4912398;29;20242;-71
2024/02/17 09:21:10;;;;;;;3.42;0.75;;;8.50;99.90;;;;;;4916971;29;20241;-71
2024/02/17 09:23:37;;;;;;;1.00;0.65;;;8.50;99.90;;;;;;4908772;29;20222;-71
2024/02/17 09:26:04;;;;;;;1.42;0.57;;;8.60;99.90;;;;;;4915421;29;20211;-70
2024/02/17 09:28:31;;;;;;;2.85;0.95;;;8.70;99.90;;;;;;4916687;29;20203;-70
2024/02/17 09:30:57;;;;;;;3.42;0.90;;;8.70;99.90;;;;;;4917742;29;20238;-71
2024/02/17 09:33:28;;;;;;;1.15;0.57;;;8.70;99.90;;;;;;4914670;29;20246;-71
2024/02/17 09:35:56;;;;;;;0.20;0.20;;;8.70;99.90;;;;;;4913779;29;20219;-70
2024/02/17 09:38:23;;;;;;;3.30;0.68;;;8.70;99.90;;;;;;4914920;29;20261;-71
2024/02/17 09:40:51;;;;;;;0.35;0.22;;;8.70;99.90;;;;;;4916655;29;21024;-70
2024/02/17 09:43:18;;;;;;;1.30;0.57;;;8.80;99.90;;;;;;4916595;29;20214;-70
2024/02/17 09:45:44;;;;;;;3.50;0.70;;;8.80;99.90;;;;;;4914338;29;20318;-71
2024/02/17 09:48:12;;;;;;;0.85;0.40;;;8.80;99.90;;;;;;4913909;29;20211;-70
2024/02/17 09:50:40;;;;;;;1.77;0.73;;;8.70;99.90;;;;;;4916100;29;20254;-70
2024/02/17 09:53:10;;;;;;;1.88;0.60;;;8.70;99.90;;;;;;4915910;29;20577;-69
2024/02/17 09:55:36;;;;;;;2.38;0.90;;;8.70;99.90;;;;;;4913424;29;20214;-70
2024/02/17 09:58:03;;;;;;;1.45;0.50;;;8.70;99.90;;;;;;4914235;29;20233;-70
2024/02/17 10:00:32;;;;;;;0.32;0.32;;;8.70;99.90;;;;;;4914295;29;20246;-70
2024/02/17 10:03:00;;;;;;;1.58;0.80;;;8.70;99.90;;;;;;4913053;29;20216;-70
2024/02/17 10:05:27;;;;;;;0.65;0.55;;;8.70;99.90;;;;;;4913555;29;20702;-71
2024/02/17 10:07:55;;;;;;;1.00;0.80;;;8.80;99.90;;;;;;4915323;29;20215;-70
2024/02/17 10:10:24;;;;;;;0.73;0.68;;;8.70;99.90;;;;;;4915050;29;20234;-70
2024/02/17 10:12:53;;;;;;;2.67;0.52;;;8.60;99.90;;;;;;4915439;29;20214;-71
2024/02/17 10:15:21;;;;;;;5.15;1.45;;;8.50;99.90;;;;;;4916361;29;20236;-70
2024/02/17 10:17:49;;;;;;;4.40;1.10;;;8.40;99.90;;;;;;4914647;29;20210;-71
2024/02/17 10:20:16;;;;;;;1.55;0.45;;;8.40;99.90;;;;;;4914460;29;20221;-70
2024/02/17 10:22:43;;;;;;;0.85;0.85;;;8.40;99.90;;;;;;4917032;29;20225;-70
2024/02/17 10:25:11;;;;;;;1.65;0.60;;;8.50;99.90;;;;;;4911588;29;20676;-70
2024/02/17 10:27:40;;;;;;;0.60;0.60;;;8.50;99.90;;;;;;4915078;29;20597;-70
2024/02/17 10:30:08;;;;;;;1.10;0.80;;;8.60;99.90;;;;;;4914535;29;20207;-70
2024/02/17 10:32:35;;;;;;;4.10;0.45;;;8.50;99.90;;;;;;4915326;29;20231;-71
2024/02/17 10:35:03;;;;;;;2.35;1.00;;;8.50;99.90;;;;;;4913593;29;20631;-70
2024/02/17 10:37:32;;;;;;;0.95;0.45;;;8.60;99.90;;;;;;4916242;29;20241;-71
2024/02/17 10:40:00;;;;;;;1.08;1.08;;;8.60;99.90;;;;;;4913023;29;20265;-71
2024/02/17 10:42:27;;;;;;;17.17;2.80;;;8.60;99.90;;;;;;4914727;29;20262;-70
2024/02/17 10:44:56;;;;;;;6.25;1.10;;;8.70;99.90;;;;;;4915938;29;20216;-71
2024/02/17 10:47:27;;;;;;;1.25;0.65;;;8.70;99.90;;;;;;4914708;29;20697;-70
2024/02/17 10:50:03;;;;;;;1.27;0.80;;;8.90;99.90;;;;;;4914367;29;20242;-71
2024/02/17 10:52:33;;;;;;;8.05;0.90;;;8.90;99.90;;;;;;4915479;29;20628;-71
2024/02/17 10:55:07;;;;;;;0.60;0.60;;;8.80;99.90;;;;;;4914935;29;20723;-71
2024/02/17 10:57:45;;;;;;;1.13;0.80;;;8.80;99.90;;;;;;4912797;29;20681;-71
2024/02/17 11:00:14;;;;;;;3.70;0.63;;;8.70;99.90;;;;;;4914431;29;20245;-71
2024/02/17 11:02:43;;;;;;;0.95;0.65;;;8.60;99.90;;;;;;4915739;29;20206;-70
2024/02/17 11:05:10;;;;;;;0.80;0.80;;;8.60;99.90;;;;;;4913266;29;20560;-70
2024/02/17 11:07:37;;;;;;;2.85;1.65;;;8.50;99.90;;;;;;4907003;29;20592;-69
2024/02/17 11:10:04;;;;;;;1.65;0.70;;;8.60;99.90;;;;;;4914720;29;20210;-71
2024/02/17 11:12:36;;;;;;;6.32;1.52;;;8.70;99.90;;;;;;4914054;29;20235;-71
2024/02/17 11:15:06;;;;;;;0.40;0.40;;;8.80;99.90;;;;;;4912228;29;20226;-71
2024/02/17 11:17:38;;;;;;;1.45;0.85;;;8.70;99.90;;;;;;4913434;29;20297;-71
2024/02/17 11:20:07;;;;;;;2.55;0.75;;;8.70;99.90;;;;;;4914097;29;20234;-71
2024/02/17 11:22:34;;;;;;;0.95;0.63;;;8.70;99.90;;;;;;4914172;29;20230;-72
2024/02/17 11:25:01;;;;;;;3.60;0.65;;;8.70;99.90;;;;;;4915602;29;20215;-71
2024/02/17 11:27:27;;;;;;;2.78;1.05;;;8.70;99.90;;;;;;4915871;29;20358;-71
2024/02/17 11:29:58;;;;;;;4.80;0.65;;;8.70;99.90;;;;;;4911306;29;20229;-71
2024/02/17 11:32:26;;;;;;;1.95;0.55;;;8.60;99.90;;;;;;4914606;29;20230;-71
2024/02/17 11:34:55;;;;;;;1.05;0.90;;;8.70;99.90;;;;;;4913980;29;20226;-70
2024/02/17 11:37:22;;;;;;;2.05;0.50;;;8.90;99.90;;;;;;4909872;29;20741;-70
2024/02/17 11:39:50;;;;;;;5.75;1.05;;;9.00;99.90;;;;;;4914583;29;20236;-71
2024/02/17 11:42:17;;;;;;;4.38;1.17;;;9.00;99.90;;;;;;4914424;29;20236;-69
2024/02/17 11:44:46;;;;;;;2.60;0.70;;;9.00;99.90;;;;;;4913606;29;20210;-70
2024/02/17 11:47:13;;;;;;;3.28;0.75;;;8.90;99.90;;;;;;4912089;29;20286;-70
2024/02/17 11:49:39;;;;;;;2.33;0.60;;;8.80;99.90;;;;;;4902322;29;20221;-70
2024/02/17 11:52:08;;;;;;;3.60;1.20;;;8.70;99.90;;;;;;4914478;29;20252;-69
2024/02/17 11:54:35;;;;;;;4.47;0.95;;;8.60;99.90;;;;;;4913029;29;20221;-69
2024/02/17 11:57:03;;;;;;;0.75;0.75;;;8.70;99.90;;;;;;4910072;29;20215;-70
2024/02/17 11:59:30;;;;;;;4.53;0.70;;;8.70;99.90;;;;;;4917536;29;20222;-70
2024/02/17 12:01:58;;;;;;;5.28;1.55;;;8.80;99.90;;;;;;4913806;29;20246;-70
2024/02/17 12:04:26;;;;;;;1.75;1.60;;;8.80;99.90;;;;;;4913483;29;20215;-71
2024/02/17 12:06:53;;;;;;;0.63;0.63;;;8.80;99.90;;;;;;4910991;29;20214;-70
2024/02/17 12:09:22;;;;;;;0.60;0.50;;;8.90;99.90;;;;;;4910614;29;20230;-71
2024/02/17 12:11:49;;;;;;;4.95;1.08;;;8.90;99.90;;;;;;4907847;29;20234;-70
2024/02/17 12:14:16;;;;;;;1.45;0.90;;;9.00;99.90;;;;;;4914471;29;20211;-71
2024/02/17 12:16:43;;;;;;;4.15;1.02;;;9.00;99.90;;;;;;4906024;29;20206;-71
2024/02/17 12:19:11;;;;;;;0.88;0.60;;;9.10;99.90;;;;;;4908995;29;20227;-70
2024/02/17 12:21:39;;;;;;;0.65;0.65;;;9.10;99.90;;;;;;4912744;29;20223;-71
2024/02/17 12:24:07;;;;;;;7.43;1.02;;;9.00;99.90;;;;;;4914367;29;20338;-71
2024/02/17 12:26:36;;;;;;;2.28;1.33;;;8.90;99.90;;;;;;4912014;29;20225;-71
2024/02/17 12:29:03;;;;;;;1.65;0.88;;;8.90;99.90;;;;;;4909567;29;20206;-72
2024/02/17 12:31:31;;;;;;;1.50;0.65;;;8.80;99.90;;;;;;4911608;29;20254;-70
2024/02/17 12:33:58;;;;;;;4.88;1.10;;;8.80;99.90;;;;;;4912835;29;20281;-70
2024/02/17 12:36:26;;;;;;;4.80;1.00;;;8.80;99.90;;;;;;4912317;29;20211;-71
2024/02/17 12:38:59;;;;;;;2.85;0.60;;;8.80;99.90;;;;;;4913648;29;20226;-71
2024/02/17 12:41:27;;;;;;;0.90;0.90;;;8.80;99.90;;;;;;4910485;29;20237;-71
2024/02/17 12:43:55;;;;;;;3.50;1.13;;;8.80;99.90;;;;;;4911187;29;20215;-70
2024/02/17 12:46:24;;;;;;;3.05;2.35;;;8.90;99.90;;;;;;4913391;29;20230;-70
2024/02/17 12:48:51;;;;;;;2.22;0.75;;;8.90;99.90;;;;;;4909585;29;20589;-71
2024/02/17 12:51:20;;;;;;;2.10;1.25;;;8.90;99.90;;;;;;4915569;29;20736;-71
2024/02/17 12:53:48;;;;;;;1.08;1.08;;;8.90;99.90;;;;;;4917898;29;20679;-70
2024/02/17 12:56:15;;;;;;;2.42;0.70;;;8.90;99.90;;;;;;4912603;29;20234;-70
2024/02/17 12:58:42;;;;;;;1.65;0.75;;;8.80;99.90;;;;;;4914423;29;20258;-71
2024/02/17 13:01:10;;;;;;;1.85;0.60;;;8.80;99.90;;;;;;4915282;29;20234;-70
2024/02/17 13:03:38;;;;;;;4.55;1.40;;;8.70;99.90;;;;;;4915727;29;20210;-71
2024/02/17 13:06:06;;;;;;;5.85;1.42;;;8.70;99.90;;;;;;4917523;29;20274;-71
2024/02/17 13:08:33;;;;;;;8.65;1.65;;;8.70;99.90;;;;;;4915748;29;20210;-69
2024/02/17 13:11:00;;;;;;;1.10;1.10;;;8.70;99.90;;;;;;4917287;29;20226;-71
2024/02/17 13:13:27;;;;;;;4.70;1.73;;;8.80;99.90;;;;;;4917061;29;20211;-69
2024/02/17 13:15:54;;;;;;;7.13;2.13;;;9.00;99.90;;;;;;4917457;29;20278;-71
2024/02/17 13:18:22;;;;;;;2.38;2.28;;;9.30;99.90;;;;;;4912983;29;20215;-71
2024/02/17 13:20:49;;;;;;;4.57;1.30;;;9.50;99.90;;;;;;4915167;29;20650;-69
2024/02/17 13:23:16;;;;;;;3.30;1.30;;;9.60;99.90;;;;;;4915452;29;20213;-71
2024/02/17 13:25:42;;;;;;;4.70;0.70;;;9.80;99.90;;;;;;4911842;29;20213;-71
2024/02/17 13:28:08;;;;;;;2.20;1.30;;;9.90;99.90;;;;;;4916921;29;20217;-71
2024/02/17 13:30:35;;;;;;;1.43;0.87;;;10.00;99.90;;;;;;4914031;29;20237;-70
2024/02/17 13:33:02;;;;;;;1.77;1.23;;;10.20;99.90;;;;;;4917108;29;20211;-71
2024/02/17 13:35:30;;;;;;;2.67;0.77;;;10.20;99.90;;;;;;4916848;29;20469;-71
2024/02/17 13:37:57;;;;;;;0.70;0.50;;;10.20;99.90;;;;;;4915223;29;20478;-71
2024/02/17 13:40:24;;;;;;;6.97;0.93;;;10.10;99.90;;;;;;4915683;29;20234;-71
2024/02/17 13:42:51;;;;;;;5.85;1.05;;;10.00;99.90;;;;;;4916007;29;20217;-70
2024/02/17 13:45:17;;;;;;;5.40;1.13;;;10.00;99.90;;;;;;4916271;29;20235;-70
2024/02/17 13:47:45;;;;;;;3.85;0.77;;;10.10;99.90;;;;;;4915930;29;20237;-71
2024/02/17 13:50:13;;;;;;;5.38;1.48;;;10.10;99.90;;;;;;4915731;29;20221;-71
2024/02/17 13:52:41;;;;;;;2.58;0.82;;;9.80;99.90;;;;;;4916841;29;20248;-70
2024/02/17 13:55:09;;;;;;;3.35;0.82;;;9.70;99.90;;;;;;4916045;29;20570;-72
2024/02/17 13:57:36;;;;;;;0.65;0.65;;;9.60;99.90;;;;;;4913904;29;20210;-70
2024/02/17 14:00:04;;;;;;;0.70;0.70;;;9.50;99.90;;;;;;4910976;29;20233;-70
2024/02/17 14:02:31;;;;;;;1.63;0.68;;;9.30;99.90;;;;;;4912630;29;20315;-70
2024/02/17 14:05:00;;;;;;;1.35;0.70;;;9.30;99.90;;;;;;4910518;29;22734;-69
2024/02/17 14:07:28;;;;;;;2.15;0.40;;;9.30;99.90;;;;;;4915929;29;20207;-68
2024/02/17 14:09:56;;;;;;;4.93;0.98;;;9.40;99.90;;;;;;4910842;29;20331;-68
2024/02/17 14:12:23;;;;;;;2.75;1.48;;;9.40;99.90;;;;;;4915056;29;20232;-69
2024/02/17 14:14:50;;;;;;;2.30;0.70;;;9.50;99.90;;;;;;4913187;29;20702;-69
2024/02/17 14:17:17;;;;;;;3.80;0.70;;;9.40;99.90;;;;;;4911025;29;20317;-69
2024/02/17 14:19:45;;;;;;;2.58;0.85;;;9.30;99.90;;;;;;4914911;29;20235;-69
2024/02/17 14:22:13;;;;;;;1.17;1.02;;;9.30;99.90;;;;;;4917021;29;20234;-69
2024/02/17 14:24:40;;;;;;;1.80;0.65;;;9.30;99.90;;;;;;4917797;29;20208;-69
2024/02/17 14:27:09;;;;;;;5.55;1.02;;;9.20;99.90;;;;;;4915517;29;20213;-68
2024/02/17 14:29:38;;;;;;;0.30;0.30;;;9.20;99.90;;;;;;4914586;29;20210;-70
2024/02/17 14:32:05;;;;;;;1.10;0.82;;;9.30;99.90;;;;;;4910477;29;20237;-69
2024/02/17 14:34:32;;;;;;;2.80;0.70;;;9.30;99.90;;;;;;4913735;29;20730;-72
2024/02/17 14:37:00;;;;;;;2.22;0.80;;;9.30;99.90;;;;;;4911163;29;20203;-69
2024/02/17 14:39:27;;;;;;;0.82;0.80;;;9.50;99.90;;;;;;4911738;29;20252;-69
2024/02/17 14:41:54;;;;;;;8.45;1.58;;;9.40;99.90;;;;;;4904684;29;20235;-70
2024/02/17 14:44:23;;;;;;;9.30;1.10;;;9.30;99.90;;;;;;4915437;29;20219;-69
2024/02/17 14:46:49;;;;;;;4.65;1.08;;;9.30;99.90;;;;;;4915139;29;20642;-70
2024/02/17 14:49:16;;;;;;;6.38;1.33;;;9.30;99.90;;;;;;4913916;29;20205;-69
2024/02/17 14:51:46;;;;;;;2.80;1.50;;;9.30;99.90;;;;;;4914422;29;20233;-69
2024/02/17 14:54:12;;;;;;;1.65;0.70;;;9.20;99.90;;;;;;4915600;29;20248;-69
2024/02/17 14:56:39;;;;;;;3.60;1.40;;;9.20;99.90;;;;;;4909770;29;20227;-69
2024/02/17 14:59:06;;;;;;;6.00;2.35;;;9.10;99.90;;;;;;4911522;29;20217;-70
2024/02/17 15:01:34;;;;;;;0.82;0.60;;;9.00;99.90;;;;;;4914532;29;20232;-69
2024/02/17 15:04:01;;;;;;;2.50;1.20;;;8.90;99.90;;;;;;4915110;29;20575;-69
2024/02/17 15:06:28;;;;;;;0.85;0.60;;;8.80;99.90;;;;;;4913043;29;20203;-69
2024/02/17 15:08:55;;;;;;;2.85;0.80;;;8.80;99.90;;;;;;4915579;29;20219;-70
2024/02/17 15:11:22;;;;;;;1.23;0.75;;;8.80;99.90;;;;;;4915416;29;20230;-69
2024/02/17 15:13:49;;;;;;;1.63;1.52;;;8.70;99.90;;;;;;4919833;29;20210;-70
2024/02/17 15:16:16;;;;;;;3.65;1.20;;;8.70;99.90;;;;;;4914161;29;20211;-70
2024/02/17 15:18:44;;;;;;;3.53;0.70;;;8.80;99.90;;;;;;4911872;29;20210;-69
2024/02/17 15:21:11;;;;;;;4.00;0.95;;;8.70;99.90;;;;;;4916038;29;20234;-70
2024/02/17 15:23:38;;;;;;;3.13;0.93;;;8.70;99.90;;;;;;4916275;29;20207;-70
2024/02/17 15:26:06;;;;;;;1.75;0.90;;;8.70;99.90;;;;;;4915634;29;20218;-70
2024/02/17 15:28:33;;;;;;;2.67;0.70;;;8.70;99.90;;;;;;4914799;29;20552;-70
2024/02/17 15:31:00;;;;;;;3.47;1.15;;;8.70;99.90;;;;;;4910754;29;20223;-70
2024/02/17 15:33:26;;;;;;;10.13;1.30;;;8.70;99.90;;;;;;4914538;29;20233;-69
2024/02/17 15:35:55;;;;;;;1.05;0.60;;;8.70;99.90;;;;;;4914211;29;20865;-70
2024/02/17 15:38:24;;;;;;;3.05;0.82;;;8.60;99.90;;;;;;4914077;29;20206;-71
2024/02/17 15:40:53;;;;;;;8.63;1.20;;;8.60;99.90;;;;;;4911808;29;20234;-70
2024/02/17 15:43:20;;;;;;;1.00;0.93;;;8.50;99.90;;;;;;4914377;29;20940;-70
2024/02/17 15:45:47;;;;;;;1.02;0.68;;;8.60;99.90;;;;;;4914567;29;20219;-69
2024/02/17 15:48:13;;;;;;;0.70;0.70;;;8.60;99.90;;;;;;4914899;29;20211;-70
2024/02/17 15:50:40;;;;;;;2.00;0.93;;;8.60;99.90;;;;;;4914575;29;20223;-71
2024/02/17 15:53:08;;;;;;;1.90;0.65;;;8.60;99.90;;;;;;4915042;29;20215;-70
2024/02/17 15:55:35;;;;;;;0.70;0.70;;;8.50;99.90;;;;;;4912812;29;20207;-69
2024/02/17 15:58:02;;;;;;;3.38;1.23;;;8.50;99.90;;;;;;4914351;29;20237;-70
2024/02/17 16:00:29;;;;;;;1.05;0.85;;;8.50;99.90;;;;;;4914136;29;20273;-70
2024/02/17 16:02:56;;;;;;;0.60;0.60;;;8.50;99.90;;;;;;4907939;29;20225;-69
2024/02/17 16:05:23;;;;;;;4.72;0.82;;;8.50;99.90;;;;;;4914179;29;20211;-70
2024/02/17 16:07:49;;;;;;;1.10;0.68;;;8.40;99.90;;;;;;4914311;29;20217;-70
2024/02/17 16:10:17;;;;;;;1.85;1.00;;;8.50;99.90;;;;;;4914369;29;20215;-70
2024/02/17 16:12:45;;;;;;;2.80;1.50;;;8.40;99.90;;;;;;4914099;29;20261;-71
2024/02/17 16:15:14;;;;;;;1.63;0.70;;;8.40;99.90;;;;;;4913486;29;20238;-70
2024/02/17 16:17:41;;;;;;;1.75;1.02;;;8.30;99.90;;;;;;4911579;29;20662;-70
2024/02/17 16:20:10;;;;;;;2.65;0.93;;;8.30;99.90;;;;;;4913077;29;20241;-70
2024/02/17 16:22:37;;;;;;;0.57;0.57;;;8.20;99.90;;;;;;4914012;29;20313;-70
2024/02/17 16:25:05;;;;;;;1.52;0.73;;;8.10;99.90;;;;;;4911729;29;20305;-70
2024/02/17 16:27:33;;;;;;;4.65;1.05;;;8.00;99.90;;;;;;4913305;29;20203;-70
2024/02/17 16:29:59;;;;;;;3.22;0.65;;;8.00;99.90;;;;;;4913486;29;20213;-69
2024/02/17 16:32:26;;;;;;;2.17;1.15;;;7.90;99.90;;;;;;4912043;29;20230;-72
2024/02/17 16:34:53;;;;;;;1.85;1.33;;;7.90;99.90;;;;;;4909915;29;20211;-71
2024/02/17 16:37:20;;;;;;;1.27;1.27;;;7.80;99.90;;;;;;4914300;29;20203;-71
2024/02/17 16:39:48;;;;;;;3.10;0.95;;;7.70;99.90;;;;;;4913147;29;20207;-72
2024/02/17 16:42:15;;;;;;;3.25;1.40;;;7.70;99.90;;;;;;4911077;29;20233;-72
2024/02/17 16:44:43;;;;;;;4.03;1.60;;;7.70;99.90;;;;;;4913965;29;20202;-72
2024/02/17 16:47:11;;;;;;;2.35;1.48;;;7.60;99.90;;;;;;4913084;29;20298;-72
2024/02/17 16:49:38;;;;;;;3.03;1.27;;;7.50;99.90;;;;;;4911900;29;20218;-72
2024/02/17 16:52:06;;;;;;;3.65;1.42;;;7.50;99.90;;;;;;4910135;29;20576;-71
2024/02/17 16:54:32;;;;;;;3.47;1.67;;;7.40;99.90;;;;;;4913976;29;20206;-72
2024/02/17 16:56:59;;;;;;;1.10;1.10;;;7.40;99.90;;;;;;4912692;29;20615;-71
2024/02/17 16:59:26;;;;;;;2.58;1.35;;;7.30;99.90;;;;;;4912623;29;20213;-72
2024/02/17 17:01:54;;;;;;;1.85;1.20;;;7.30;99.90;;;;;;4910566;29;20246;-72
2024/02/17 17:04:23;;;;;;;1.33;1.25;;;7.20;99.90;;;;;;4913382;29;20213;-72
2024/02/17 17:06:50;;;;;;;3.03;1.42;;;7.10;99.90;;;;;;4912377;29;20213;-71
2024/02/17 17:09:17;;;;;;;8.40;1.40;;;7.00;99.90;;;;;;4913906;29;20209;-71
2024/02/17 17:11:43;;;;;;;0.98;0.98;;;6.90;99.90;;;;;;4914649;29;20728;-70
2024/02/17 17:14:10;;;;;;;2.13;1.95;;;6.80;99.90;;;;;;4912403;29;20214;-69
2024/02/17 17:16:37;;;;;;;7.90;1.95;;;6.70;99.90;;;;;;4910667;29;20209;-69
2024/02/17 17:19:05;;;;;;;5.50;1.40;;;6.70;99.90;;;;;;4916485;29;20216;-70
2024/02/17 17:21:31;;;;;;;2.83;0.57;;;6.60;99.90;;;;;;4912294;29;20249;-70
2024/02/17 17:23:58;;;;;;;4.65;1.30;;;6.50;99.90;;;;;;4913075;29;20586;-70
2024/02/17 17:26:26;;;;;;;0.60;0.60;;;6.40;99.90;;;;;;4912969;29;20225;-70
2024/02/17 17:28:52;;;;;;;1.63;0.38;;;6.30;99.90;;;;;;4912400;29;20371;-69
2024/02/17 17:31:19;;;;;;;1.95;0.82;;;6.30;99.90;;;;;;4911890;29;20243;-69
2024/02/17 17:33:46;;;;;;;1.55;1.52;;;6.20;99.90;;;;;;4912849;29;20220;-69
2024/02/17 17:36:16;;;;;;;3.15;1.10;;;6.20;99.90;;;;;;4915990;29;20220;-69
2024/02/17 17:38:42;;;;;;;0.80;0.80;;;6.10;99.90;;;;;;4917249;29;20211;-69
2024/02/17 17:41:09;;;;;;;4.05;1.63;;;6.10;99.90;;;;;;4922986;29;20228;-69
2024/02/17 17:43:38;;;;;;;4.65;2.38;;;6.10;99.90;;;;;;4919081;29;20209;-69
2024/02/17 17:46:08;;;;;;;2.15;1.10;;;6.00;99.90;;;;;;4913705;29;20627;-69
2024/02/17 17:48:35;;;;;;;12.55;2.40;;;6.00;99.90;;;;;;4913815;29;20217;-69
2024/02/17 17:51:01;;;;;;;2.45;2.25;;;6.00;99.90;;;;;;4916895;29;20239;-70
2024/02/17 17:53:30;;;;;;;6.93;3.22;;;5.90;99.90;;;;;;4918824;29;20228;-70
2024/02/17 17:55:57;;;;;;;2.55;2.05;;;5.90;99.90;;;;;;4918964;29;20748;-70
2024/02/17 17:58:23;;;;;;;1.48;1.38;;;5.80;99.90;;;;;;4917984;29;20215;-70
2024/02/17 18:00:51;;;;;;;3.17;2.88;;;5.80;99.90;;;;;;4917059;29;20243;-70